sensor_id;sensor_type;location;lat;lon;timestamp;temperature;humidity
70830;SHT30;58451;51.550;7.208;2023-05-10T00:00:22;14.04;83.33
70830;SHT30;58451;51.550;7.208;2023-05-10T00:01:55;14.02;83.50
70830;SHT30;58451;51.550;7.208;2023-05-10T00:03:26;14.01;83.50
70830;SHT30;58451;51.550;7.208;2023-05-10T00:04:58;13.98;83.77
70830;SHT30;58451;51.550;7.208;2023-05-10T00:06:30;13.97;83.58
70830;SHT30;58451;51.550;7.208;2023-05-10T00:08:02;13.96;83.68
70830;SHT30;58451;51.550;7.208;2023-05-10T00:09:34;13.96;83.42
70830;SHT30;58451;51.550;7.208;2023-05-10T00:11:06;13.96;83.37
70830;SHT30;58451;51.550;7.208;2023-05-10T00:12:38;13.95;83.25
70830;SHT30;58451;51.550;7.208;2023-05-10T00:14:10;13.94;83.32
70830;SHT30;58451;51.550;7.208;2023-05-10T00:15:43;13.94;83.47
70830;SHT30;58451;51.550;7.208;2023-05-10T00:17:15;13.91;83.40
70830;SHT30;58451;51.550;7.208;2023-05-10T00:18:46;13.89;83.30
70830;SHT30;58451;51.550;7.208;2023-05-10T00:20:18;13.90;83.55
70830;SHT30;58451;51.550;7.208;2023-05-10T00:21:50;13.88;83.62
70830;SHT30;58451;51.550;7.208;2023-05-10T00:23:22;13.88;83.38
70830;SHT30;58451;51.550;7.208;2023-05-10T00:24:56;13.86;83.68
70830;SHT30;58451;51.550;7.208;2023-05-10T00:26:29;13.84;84.30
70830;SHT30;58451;51.550;7.208;2023-05-10T00:28:00;13.84;84.03
70830;SHT30;58451;51.550;7.208;2023-05-10T00:29:33;13.84;84.00
70830;SHT30;58451;51.550;7.208;2023-05-10T00:31:05;13.84;83.85
70830;SHT30;58451;51.550;7.208;2023-05-10T00:32:37;13.84;83.83
70830;SHT30;58451;51.550;7.208;2023-05-10T00:34:08;13.83;83.77
70830;SHT30;58451;51.550;7.208;2023-05-10T00:35:40;13.83;83.82
70830;SHT30;58451;51.550;7.208;2023-05-10T00:37:13;13.84;83.72
70830;SHT30;58451;51.550;7.208;2023-05-10T00:38:44;13.81;83.62
70830;SHT30;58451;51.550;7.208;2023-05-10T00:40:17;13.81;83.50
70830;SHT30;58451;51.550;7.208;2023-05-10T00:41:51;13.81;83.77
70830;SHT30;58451;51.550;7.208;2023-05-10T00:43:23;13.80;83.67
70830;SHT30;58451;51.550;7.208;2023-05-10T00:44:54;13.80;83.63
70830;SHT30;58451;51.550;7.208;2023-05-10T00:46:26;13.79;83.62
70830;SHT30;58451;51.550;7.208;2023-05-10T00:48:00;13.79;83.63
70830;SHT30;58451;51.550;7.208;2023-05-10T00:49:35;13.78;83.53
70830;SHT30;58451;51.550;7.208;2023-05-10T00:51:08;13.79;83.80
70830;SHT30;58451;51.550;7.208;2023-05-10T00:52:40;13.80;83.87
70830;SHT30;58451;51.550;7.208;2023-05-10T00:54:14;13.78;83.65
70830;SHT30;58451;51.550;7.208;2023-05-10T00:55:47;13.80;83.58
70830;SHT30;58451;51.550;7.208;2023-05-10T00:57:19;13.80;83.70
70830;SHT30;58451;51.550;7.208;2023-05-10T00:58:51;13.80;83.58
70830;SHT30;58451;51.550;7.208;2023-05-10T01:00:23;13.81;83.78
70830;SHT30;58451;51.550;7.208;2023-05-10T01:01:54;13.80;83.75
70830;SHT30;58451;51.550;7.208;2023-05-10T01:03:29;13.81;83.67
70830;SHT30;58451;51.550;7.208;2023-05-10T01:05:02;13.81;83.62
70830;SHT30;58451;51.550;7.208;2023-05-10T01:06:35;13.81;83.85
70830;SHT30;58451;51.550;7.208;2023-05-10T01:08:06;13.80;83.88
70830;SHT30;58451;51.550;7.208;2023-05-10T01:09:39;13.80;83.82
70830;SHT30;58451;51.550;7.208;2023-05-10T01:11:11;13.80;83.85
70830;SHT30;58451;51.550;7.208;2023-05-10T01:12:44;13.78;83.87
70830;SHT30;58451;51.550;7.208;2023-05-10T01:14:19;13.79;83.95
70830;SHT30;58451;51.550;7.208;2023-05-10T01:15:51;13.77;83.93
70830;SHT30;58451;51.550;7.208;2023-05-10T01:17:24;13.77;83.87
70830;SHT30;58451;51.550;7.208;2023-05-10T01:18:56;13.77;83.97
70830;SHT30;58451;51.550;7.208;2023-05-10T01:20:34;13.77;84.00
70830;SHT30;58451;51.550;7.208;2023-05-10T01:27:12;13.71;84.35
70830;SHT30;58451;51.550;7.208;2023-05-10T01:35:10;13.64;84.08
70830;SHT30;58451;51.550;7.208;2023-05-10T01:37:09;13.61;83.83
70830;SHT30;58451;51.550;7.208;2023-05-10T01:38:50;13.61;83.73
70830;SHT30;58451;51.550;7.208;2023-05-10T01:42:16;13.59;83.77
70830;SHT30;58451;51.550;7.208;2023-05-10T01:44:15;13.60;83.73
70830;SHT30;58451;51.550;7.208;2023-05-10T01:46:10;13.59;83.83
70830;SHT30;58451;51.550;7.208;2023-05-10T01:49:47;13.57;83.70
70830;SHT30;58451;51.550;7.208;2023-05-10T01:51:23;13.58;83.80
70830;SHT30;58451;51.550;7.208;2023-05-10T01:53:00;13.57;83.73
70830;SHT30;58451;51.550;7.208;2023-05-10T01:54:35;13.57;83.78
70830;SHT30;58451;51.550;7.208;2023-05-10T01:56:12;13.56;83.80
70830;SHT30;58451;51.550;7.208;2023-05-10T01:57:48;13.53;83.85
70830;SHT30;58451;51.550;7.208;2023-05-10T01:59:29;13.51;83.78
70830;SHT30;58451;51.550;7.208;2023-05-10T02:01:10;13.50;83.68
70830;SHT30;58451;51.550;7.208;2023-05-10T02:02:45;13.48;83.70
70830;SHT30;58451;51.550;7.208;2023-05-10T02:04:19;13.50;83.67
70830;SHT30;58451;51.550;7.208;2023-05-10T02:05:56;13.51;83.62
70830;SHT30;58451;51.550;7.208;2023-05-10T02:07:29;13.51;83.65
70830;SHT30;58451;51.550;7.208;2023-05-10T02:09:05;13.53;83.62
70830;SHT30;58451;51.550;7.208;2023-05-10T02:10:39;13.54;83.60
70830;SHT30;58451;51.550;7.208;2023-05-10T02:12:13;13.54;83.62
70830;SHT30;58451;51.550;7.208;2023-05-10T02:13:47;13.55;83.63
70830;SHT30;58451;51.550;7.208;2023-05-10T02:15:22;13.54;83.77
70830;SHT30;58451;51.550;7.208;2023-05-10T02:16:56;13.52;83.65
70830;SHT30;58451;51.550;7.208;2023-05-10T02:18:31;13.51;83.60
70830;SHT30;58451;51.550;7.208;2023-05-10T02:20:07;13.50;83.60
70830;SHT30;58451;51.550;7.208;2023-05-10T02:21:41;13.51;83.80
70830;SHT30;58451;51.550;7.208;2023-05-10T02:23:16;13.49;83.72
70830;SHT30;58451;51.550;7.208;2023-05-10T02:24:49;13.48;83.63
70830;SHT30;58451;51.550;7.208;2023-05-10T02:26:22;13.46;83.60
70830;SHT30;58451;51.550;7.208;2023-05-10T02:27:56;13.46;83.65
70830;SHT30;58451;51.550;7.208;2023-05-10T02:29:31;13.46;83.70
70830;SHT30;58451;51.550;7.208;2023-05-10T02:31:05;13.44;83.60
70830;SHT30;58451;51.550;7.208;2023-05-10T02:32:38;13.44;83.52
70830;SHT30;58451;51.550;7.208;2023-05-10T02:34:11;13.44;83.52
70830;SHT30;58451;51.550;7.208;2023-05-10T02:35:45;13.43;83.50
70830;SHT30;58451;51.550;7.208;2023-05-10T02:37:18;13.44;83.52
70830;SHT30;58451;51.550;7.208;2023-05-10T02:38:52;13.43;83.58
70830;SHT30;58451;51.550;7.208;2023-05-10T02:40:26;13.44;83.58
70830;SHT30;58451;51.550;7.208;2023-05-10T02:42:00;13.42;83.57
70830;SHT30;58451;51.550;7.208;2023-05-10T02:43:33;13.41;83.55
70830;SHT30;58451;51.550;7.208;2023-05-10T02:45:07;13.42;83.60
70830;SHT30;58451;51.550;7.208;2023-05-10T02:46:46;13.41;83.73
70830;SHT30;58451;51.550;7.208;2023-05-10T02:48:19;13.41;83.70
70830;SHT30;58451;51.550;7.208;2023-05-10T02:49:52;13.40;83.60
70830;SHT30;58451;51.550;7.208;2023-05-10T02:51:24;13.39;83.70
70830;SHT30;58451;51.550;7.208;2023-05-10T02:53:05;13.37;83.87
70830;SHT30;58451;51.550;7.208;2023-05-10T02:54:45;13.37;83.72
70830;SHT30;58451;51.550;7.208;2023-05-10T02:56:24;13.37;83.80
70830;SHT30;58451;51.550;7.208;2023-05-10T02:58:11;13.35;83.75
70830;SHT30;58451;51.550;7.208;2023-05-10T02:59:43;13.34;83.72
70830;SHT30;58451;51.550;7.208;2023-05-10T03:01:16;13.33;83.70
70830;SHT30;58451;51.550;7.208;2023-05-10T03:02:48;13.33;83.68
70830;SHT30;58451;51.550;7.208;2023-05-10T03:04:20;13.32;83.65
70830;SHT30;58451;51.550;7.208;2023-05-10T03:05:52;13.31;83.60
70830;SHT30;58451;51.550;7.208;2023-05-10T03:07:27;13.31;83.57
70830;SHT30;58451;51.550;7.208;2023-05-10T03:08:59;13.33;83.52
70830;SHT30;58451;51.550;7.208;2023-05-10T03:10:31;13.31;83.58
70830;SHT30;58451;51.550;7.208;2023-05-10T03:15:35;13.31;83.65
70830;SHT30;58451;51.550;7.208;2023-05-10T03:17:23;13.30;83.58
70830;SHT30;58451;51.550;7.208;2023-05-10T03:20:59;13.29;83.53
70830;SHT30;58451;51.550;7.208;2023-05-10T03:22:44;13.29;83.73
70830;SHT30;58451;51.550;7.208;2023-05-10T03:24:21;13.30;83.80
70830;SHT30;58451;51.550;7.208;2023-05-10T03:25:59;13.30;83.63
70830;SHT30;58451;51.550;7.208;2023-05-10T03:27:34;13.31;83.73
70830;SHT30;58451;51.550;7.208;2023-05-10T03:29:10;13.30;83.70
70830;SHT30;58451;51.550;7.208;2023-05-10T03:30:45;13.32;83.77
70830;SHT30;58451;51.550;7.208;2023-05-10T03:32:18;13.31;83.72
70830;SHT30;58451;51.550;7.208;2023-05-10T03:33:51;13.33;83.73
70830;SHT30;58451;51.550;7.208;2023-05-10T03:35:28;13.33;83.90
70830;SHT30;58451;51.550;7.208;2023-05-10T03:37:00;13.32;83.80
70830;SHT30;58451;51.550;7.208;2023-05-10T03:38:33;13.33;83.83
70830;SHT30;58451;51.550;7.208;2023-05-10T03:40:06;13.34;83.82
70830;SHT30;58451;51.550;7.208;2023-05-10T03:41:40;13.35;83.78
70830;SHT30;58451;51.550;7.208;2023-05-10T03:43:12;13.35;83.82
70830;SHT30;58451;51.550;7.208;2023-05-10T03:44:44;13.36;83.72
70830;SHT30;58451;51.550;7.208;2023-05-10T03:46:16;13.36;83.68
70830;SHT30;58451;51.550;7.208;2023-05-10T03:47:48;13.38;83.68
70830;SHT30;58451;51.550;7.208;2023-05-10T03:49:20;13.39;83.72
70830;SHT30;58451;51.550;7.208;2023-05-10T03:50:52;13.38;84.07
70830;SHT30;58451;51.550;7.208;2023-05-10T03:52:24;13.40;83.98
70830;SHT30;58451;51.550;7.208;2023-05-10T03:53:55;13.42;83.90
70830;SHT30;58451;51.550;7.208;2023-05-10T03:55:28;13.43;83.87
70830;SHT30;58451;51.550;7.208;2023-05-10T03:57:00;13.43;83.92
70830;SHT30;58451;51.550;7.208;2023-05-10T03:58:34;13.45;83.93
70830;SHT30;58451;51.550;7.208;2023-05-10T04:00:06;13.47;83.88
70830;SHT30;58451;51.550;7.208;2023-05-10T04:01:45;13.48;83.83
70830;SHT30;58451;51.550;7.208;2023-05-10T04:03:17;13.50;83.80
70830;SHT30;58451;51.550;7.208;2023-05-10T04:04:49;13.51;83.73
70830;SHT30;58451;51.550;7.208;2023-05-10T04:06:22;13.53;83.70
70830;SHT30;58451;51.550;7.208;2023-05-10T04:07:54;13.53;83.73
70830;SHT30;58451;51.550;7.208;2023-05-10T04:09:26;13.53;83.73
70830;SHT30;58451;51.550;7.208;2023-05-10T04:11:04;13.55;83.78
70830;SHT30;58451;51.550;7.208;2023-05-10T04:12:40;13.54;83.73
70830;SHT30;58451;51.550;7.208;2023-05-10T04:14:12;13.53;83.77
70830;SHT30;58451;51.550;7.208;2023-05-10T04:15:44;13.55;83.72
70830;SHT30;58451;51.550;7.208;2023-05-10T04:17:16;13.55;83.83
70830;SHT30;58451;51.550;7.208;2023-05-10T04:18:48;13.54;83.98
70830;SHT30;58451;51.550;7.208;2023-05-10T04:20:20;13.53;83.90
70830;SHT30;58451;51.550;7.208;2023-05-10T04:21:52;13.54;83.85
70830;SHT30;58451;51.550;7.208;2023-05-10T04:23:25;13.55;83.75
70830;SHT30;58451;51.550;7.208;2023-05-10T04:24:57;13.54;83.68
70830;SHT30;58451;51.550;7.208;2023-05-10T04:26:28;13.54;83.72
70830;SHT30;58451;51.550;7.208;2023-05-10T04:28:00;13.55;83.72
70830;SHT30;58451;51.550;7.208;2023-05-10T04:29:32;13.55;83.65
70830;SHT30;58451;51.550;7.208;2023-05-10T04:31:04;13.57;83.63
70830;SHT30;58451;51.550;7.208;2023-05-10T04:32:39;13.58;83.68
70830;SHT30;58451;51.550;7.208;2023-05-10T04:34:11;13.59;83.63
70830;SHT30;58451;51.550;7.208;2023-05-10T04:35:43;13.60;83.58
70830;SHT30;58451;51.550;7.208;2023-05-10T04:37:15;13.60;83.53
70830;SHT30;58451;51.550;7.208;2023-05-10T04:38:48;13.61;83.50
70830;SHT30;58451;51.550;7.208;2023-05-10T04:40:20;13.60;83.57
70830;SHT30;58451;51.550;7.208;2023-05-10T04:41:51;13.60;83.57
70830;SHT30;58451;51.550;7.208;2023-05-10T04:43:24;13.62;83.63
70830;SHT30;58451;51.550;7.208;2023-05-10T04:44:56;13.62;83.62
70830;SHT30;58451;51.550;7.208;2023-05-10T04:46:27;13.63;83.58
70830;SHT30;58451;51.550;7.208;2023-05-10T04:47:59;13.64;83.62
70830;SHT30;58451;51.550;7.208;2023-05-10T04:49:31;13.64;83.60
70830;SHT30;58451;51.550;7.208;2023-05-10T04:51:03;13.64;83.53
70830;SHT30;58451;51.550;7.208;2023-05-10T04:52:35;13.66;83.52
70830;SHT30;58451;51.550;7.208;2023-05-10T04:54:07;13.66;83.50
70830;SHT30;58451;51.550;7.208;2023-05-10T04:55:39;13.68;83.53
70830;SHT30;58451;51.550;7.208;2023-05-10T04:57:11;13.68;83.75
70830;SHT30;58451;51.550;7.208;2023-05-10T04:58:43;13.69;83.70
70830;SHT30;58451;51.550;7.208;2023-05-10T05:00:15;13.70;83.63
70830;SHT30;58451;51.550;7.208;2023-05-10T05:01:48;13.70;83.62
70830;SHT30;58451;51.550;7.208;2023-05-10T05:03:20;13.71;83.70
70830;SHT30;58451;51.550;7.208;2023-05-10T05:04:52;13.71;83.80
70830;SHT30;58451;51.550;7.208;2023-05-10T05:06:24;13.71;83.90
70830;SHT30;58451;51.550;7.208;2023-05-10T05:07:56;13.70;83.83
70830;SHT30;58451;51.550;7.208;2023-05-10T05:09:28;13.73;83.73
70830;SHT30;58451;51.550;7.208;2023-05-10T05:10:59;13.74;83.65
70830;SHT30;58451;51.550;7.208;2023-05-10T05:12:31;13.75;83.67
70830;SHT30;58451;51.550;7.208;2023-05-10T05:14:03;13.77;83.68
70830;SHT30;58451;51.550;7.208;2023-05-10T05:15:35;13.76;83.72
70830;SHT30;58451;51.550;7.208;2023-05-10T05:17:07;13.78;83.72
70830;SHT30;58451;51.550;7.208;2023-05-10T05:18:39;13.77;83.97
70830;SHT30;58451;51.550;7.208;2023-05-10T05:20:11;13.77;83.98
70830;SHT30;58451;51.550;7.208;2023-05-10T05:21:44;13.78;83.98
70830;SHT30;58451;51.550;7.208;2023-05-10T05:23:16;13.78;83.82
70830;SHT30;58451;51.550;7.208;2023-05-10T05:24:48;13.80;83.72
70830;SHT30;58451;51.550;7.208;2023-05-10T05:26:20;13.81;83.67
70830;SHT30;58451;51.550;7.208;2023-05-10T05:27:52;13.82;83.60
70830;SHT30;58451;51.550;7.208;2023-05-10T05:29:24;13.86;83.63
70830;SHT30;58451;51.550;7.208;2023-05-10T05:30:56;13.88;83.77
70830;SHT30;58451;51.550;7.208;2023-05-10T05:32:28;13.91;83.80
70830;SHT30;58451;51.550;7.208;2023-05-10T05:34:00;13.94;83.62
70830;SHT30;58451;51.550;7.208;2023-05-10T05:35:33;13.97;83.55
70830;SHT30;58451;51.550;7.208;2023-05-10T05:37:05;13.98;83.65
70830;SHT30;58451;51.550;7.208;2023-05-10T05:38:38;13.99;83.78
70830;SHT30;58451;51.550;7.208;2023-05-10T05:40:12;14.01;83.87
70830;SHT30;58451;51.550;7.208;2023-05-10T05:41:46;14.02;83.80
70830;SHT30;58451;51.550;7.208;2023-05-10T05:43:18;14.07;83.68
70830;SHT30;58451;51.550;7.208;2023-05-10T05:44:50;14.11;83.58
70830;SHT30;58451;51.550;7.208;2023-05-10T05:46:22;14.15;83.57
70830;SHT30;58451;51.550;7.208;2023-05-10T05:47:54;14.18;83.50
70830;SHT30;58451;51.550;7.208;2023-05-10T05:49:26;14.19;83.42
70830;SHT30;58451;51.550;7.208;2023-05-10T05:50:58;14.18;83.45
70830;SHT30;58451;51.550;7.208;2023-05-10T05:52:30;14.19;83.37
70830;SHT30;58451;51.550;7.208;2023-05-10T05:54:02;14.19;83.37
70830;SHT30;58451;51.550;7.208;2023-05-10T05:55:35;14.20;83.30
70830;SHT30;58451;51.550;7.208;2023-05-10T05:57:07;14.19;83.27
70830;SHT30;58451;51.550;7.208;2023-05-10T05:58:39;14.19;83.22
70830;SHT30;58451;51.550;7.208;2023-05-10T06:00:11;14.18;83.38
70830;SHT30;58451;51.550;7.208;2023-05-10T06:01:43;14.19;83.28
70830;SHT30;58451;51.550;7.208;2023-05-10T06:03:15;14.18;83.23
70830;SHT30;58451;51.550;7.208;2023-05-10T06:04:48;14.18;83.22
70830;SHT30;58451;51.550;7.208;2023-05-10T06:06:19;14.18;83.22
70830;SHT30;58451;51.550;7.208;2023-05-10T06:07:51;14.19;83.28
70830;SHT30;58451;51.550;7.208;2023-05-10T06:09:23;14.19;83.30
70830;SHT30;58451;51.550;7.208;2023-05-10T06:10:55;14.22;83.30
70830;SHT30;58451;51.550;7.208;2023-05-10T06:12:27;14.25;83.20
70830;SHT30;58451;51.550;7.208;2023-05-10T06:13:59;14.29;83.15
70830;SHT30;58451;51.550;7.208;2023-05-10T06:15:32;14.34;83.05
70830;SHT30;58451;51.550;7.208;2023-05-10T06:17:04;14.38;82.98
70830;SHT30;58451;51.550;7.208;2023-05-10T06:18:36;14.40;82.93
70830;SHT30;58451;51.550;7.208;2023-05-10T06:20:08;14.46;82.90
70830;SHT30;58451;51.550;7.208;2023-05-10T06:21:41;14.53;82.83
70830;SHT30;58451;51.550;7.208;2023-05-10T06:23:13;14.57;82.72
70830;SHT30;58451;51.550;7.208;2023-05-10T06:24:44;14.58;82.70
70830;SHT30;58451;51.550;7.208;2023-05-10T06:26:16;14.60;82.62
70830;SHT30;58451;51.550;7.208;2023-05-10T06:27:48;14.62;82.58
70830;SHT30;58451;51.550;7.208;2023-05-10T06:29:24;14.65;82.52
70830;SHT30;58451;51.550;7.208;2023-05-10T06:30:56;14.68;82.48
70830;SHT30;58451;51.550;7.208;2023-05-10T06:32:27;14.70;82.47
70830;SHT30;58451;51.550;7.208;2023-05-10T06:33:59;14.78;82.42
70830;SHT30;58451;51.550;7.208;2023-05-10T06:35:31;14.87;82.25
70830;SHT30;58451;51.550;7.208;2023-05-10T06:37:04;14.99;82.03
70830;SHT30;58451;51.550;7.208;2023-05-10T06:38:36;15.10;81.87
70830;SHT30;58451;51.550;7.208;2023-05-10T06:40:08;15.23;81.65
70830;SHT30;58451;51.550;7.208;2023-05-10T06:41:41;15.34;81.45
70830;SHT30;58451;51.550;7.208;2023-05-10T06:43:13;15.36;81.32
70830;SHT30;58451;51.550;7.208;2023-05-10T06:44:45;15.34;81.12
70830;SHT30;58451;51.550;7.208;2023-05-10T06:46:17;15.29;81.02
70830;SHT30;58451;51.550;7.208;2023-05-10T06:47:49;15.27;81.10
70830;SHT30;58451;51.550;7.208;2023-05-10T06:49:21;15.25;81.12
70830;SHT30;58451;51.550;7.208;2023-05-10T06:50:53;15.23;81.10
70830;SHT30;58451;51.550;7.208;2023-05-10T06:52:25;15.23;81.05
70830;SHT30;58451;51.550;7.208;2023-05-10T06:53:56;15.23;80.98
70830;SHT30;58451;51.550;7.208;2023-05-10T06:55:28;15.26;80.93
70830;SHT30;58451;51.550;7.208;2023-05-10T06:57:00;15.29;80.85
70830;SHT30;58451;51.550;7.208;2023-05-10T06:58:43;15.28;80.87
70830;SHT30;58451;51.550;7.208;2023-05-10T07:00:15;15.27;80.88
70830;SHT30;58451;51.550;7.208;2023-05-10T07:01:48;15.28;80.60
70830;SHT30;58451;51.550;7.208;2023-05-10T07:03:20;15.29;80.45
70830;SHT30;58451;51.550;7.208;2023-05-10T07:04:52;15.30;80.40
70830;SHT30;58451;51.550;7.208;2023-05-10T07:06:24;15.31;80.40
70830;SHT30;58451;51.550;7.208;2023-05-10T07:08:04;15.32;80.23
70830;SHT30;58451;51.550;7.208;2023-05-10T07:09:35;15.37;80.23
70830;SHT30;58451;51.550;7.208;2023-05-10T07:11:07;15.43;80.17
70830;SHT30;58451;51.550;7.208;2023-05-10T07:12:39;15.44;80.10
70830;SHT30;58451;51.550;7.208;2023-05-10T07:14:11;15.47;80.00
70830;SHT30;58451;51.550;7.208;2023-05-10T07:15:43;15.48;80.02
70830;SHT30;58451;51.550;7.208;2023-05-10T07:17:16;15.47;79.90
70830;SHT30;58451;51.550;7.208;2023-05-10T07:18:47;15.47;79.93
70830;SHT30;58451;51.550;7.208;2023-05-10T07:20:19;15.53;79.85
70830;SHT30;58451;51.550;7.208;2023-05-10T07:21:51;15.67;79.67
70830;SHT30;58451;51.550;7.208;2023-05-10T07:23:23;15.84;79.20
70830;SHT30;58451;51.550;7.208;2023-05-10T07:24:55;16.01;78.88
70830;SHT30;58451;51.550;7.208;2023-05-10T07:26:26;16.22;78.67
70830;SHT30;58451;51.550;7.208;2023-05-10T07:27:58;16.35;78.60
70830;SHT30;58451;51.550;7.208;2023-05-10T07:29:30;16.45;78.15
70830;SHT30;58451;51.550;7.208;2023-05-10T07:31:02;16.59;78.03
70830;SHT30;58451;51.550;7.208;2023-05-10T07:32:34;16.71;76.95
70830;SHT30;58451;51.550;7.208;2023-05-10T07:34:06;16.88;77.38
70830;SHT30;58451;51.550;7.208;2023-05-10T07:35:38;17.01;76.38
70830;SHT30;58451;51.550;7.208;2023-05-10T07:37:10;17.08;75.48
70830;SHT30;58451;51.550;7.208;2023-05-10T07:38:41;17.14;75.45
70830;SHT30;58451;51.550;7.208;2023-05-10T07:40:13;17.21;75.65
70830;SHT30;58451;51.550;7.208;2023-05-10T07:41:48;17.31;75.63
70830;SHT30;58451;51.550;7.208;2023-05-10T07:43:19;17.42;75.82
70830;SHT30;58451;51.550;7.208;2023-05-10T07:44:51;17.49;75.63
70830;SHT30;58451;51.550;7.208;2023-05-10T07:46:23;17.57;75.30
70830;SHT30;58451;51.550;7.208;2023-05-10T07:47:55;17.65;75.13
70830;SHT30;58451;51.550;7.208;2023-05-10T07:49:27;17.71;74.93
70830;SHT30;58451;51.550;7.208;2023-05-10T07:50:59;17.77;74.65
70830;SHT30;58451;51.550;7.208;2023-05-10T07:52:30;17.88;74.90
70830;SHT30;58451;51.550;7.208;2023-05-10T07:54:02;17.99;74.78
70830;SHT30;58451;51.550;7.208;2023-05-10T07:55:34;18.14;73.90
70830;SHT30;58451;51.550;7.208;2023-05-10T07:57:06;18.26;73.03
70830;SHT30;58451;51.550;7.208;2023-05-10T07:58:38;18.41;71.98
70830;SHT30;58451;51.550;7.208;2023-05-10T08:00:11;18.61;72.83
70830;SHT30;58451;51.550;7.208;2023-05-10T08:01:45;18.78;72.70
70830;SHT30;58451;51.550;7.208;2023-05-10T08:03:17;18.87;72.25
70830;SHT30;58451;51.550;7.208;2023-05-10T08:04:49;18.82;69.77
70830;SHT30;58451;51.550;7.208;2023-05-10T08:06:21;18.85;70.50
70830;SHT30;58451;51.550;7.208;2023-05-10T08:07:53;18.88;70.62
70830;SHT30;58451;51.550;7.208;2023-05-10T08:09:25;18.86;70.32
70830;SHT30;58451;51.550;7.208;2023-05-10T08:10:57;18.85;70.57
70830;SHT30;58451;51.550;7.208;2023-05-10T08:12:28;18.82;69.75
70830;SHT30;58451;51.550;7.208;2023-05-10T08:14:00;18.77;68.83
70830;SHT30;58451;51.550;7.208;2023-05-10T08:15:32;18.72;69.25
70830;SHT30;58451;51.550;7.208;2023-05-10T08:17:04;18.70;69.58
70830;SHT30;58451;51.550;7.208;2023-05-10T08:18:36;18.69;69.67
70830;SHT30;58451;51.550;7.208;2023-05-10T08:20:09;18.66;69.73
70830;SHT30;58451;51.550;7.208;2023-05-10T08:21:44;18.63;69.55
70830;SHT30;58451;51.550;7.208;2023-05-10T08:23:17;18.60;69.70
70830;SHT30;58451;51.550;7.208;2023-05-10T08:24:49;18.55;69.50
70830;SHT30;58451;51.550;7.208;2023-05-10T08:26:20;18.50;69.72
70830;SHT30;58451;51.550;7.208;2023-05-10T08:27:53;18.43;69.83
70830;SHT30;58451;51.550;7.208;2023-05-10T08:29:24;18.42;69.90
70830;SHT30;58451;51.550;7.208;2023-05-10T08:30:58;18.43;69.17
70830;SHT30;58451;51.550;7.208;2023-05-10T08:32:30;18.46;69.05
70830;SHT30;58451;51.550;7.208;2023-05-10T08:34:02;18.48;69.25
70830;SHT30;58451;51.550;7.208;2023-05-10T08:35:34;18.38;68.87
70830;SHT30;58451;51.550;7.208;2023-05-10T08:37:06;18.16;68.97
70830;SHT30;58451;51.550;7.208;2023-05-10T08:38:38;17.96;69.57
70830;SHT30;58451;51.550;7.208;2023-05-10T08:40:11;17.76;70.22
70830;SHT30;58451;51.550;7.208;2023-05-10T08:41:44;17.62;70.55
70830;SHT30;58451;51.550;7.208;2023-05-10T08:43:19;17.47;70.78
70830;SHT30;58451;51.550;7.208;2023-05-10T08:44:51;17.29;70.90
70830;SHT30;58451;51.550;7.208;2023-05-10T08:46:25;17.21;71.15
70830;SHT30;58451;51.550;7.208;2023-05-10T08:48:01;17.22;71.38
70830;SHT30;58451;51.550;7.208;2023-05-10T08:49:36;17.26;71.13
70830;SHT30;58451;51.550;7.208;2023-05-10T08:51:09;17.28;71.20
70830;SHT30;58451;51.550;7.208;2023-05-10T08:52:46;17.34;71.10
70830;SHT30;58451;51.550;7.208;2023-05-10T08:54:23;17.42;71.15
70830;SHT30;58451;51.550;7.208;2023-05-10T08:55:55;17.40;70.58
70830;SHT30;58451;51.550;7.208;2023-05-10T08:57:28;17.48;70.82
70830;SHT30;58451;51.550;7.208;2023-05-10T08:59:00;17.56;70.60
70830;SHT30;58451;51.550;7.208;2023-05-10T09:00:32;17.60;70.37
70830;SHT30;58451;51.550;7.208;2023-05-10T09:02:05;17.59;70.23
70830;SHT30;58451;51.550;7.208;2023-05-10T09:03:38;17.55;70.40
70830;SHT30;58451;51.550;7.208;2023-05-10T09:05:11;17.51;70.62
70830;SHT30;58451;51.550;7.208;2023-05-10T09:06:43;17.43;70.55
70830;SHT30;58451;51.550;7.208;2023-05-10T09:08:15;17.29;70.47
70830;SHT30;58451;51.550;7.208;2023-05-10T09:09:48;17.17;71.03
70830;SHT30;58451;51.550;7.208;2023-05-10T09:11:22;17.14;71.23
70830;SHT30;58451;51.550;7.208;2023-05-10T09:12:55;17.16;71.20
70830;SHT30;58451;51.550;7.208;2023-05-10T09:14:29;17.15;71.37
70830;SHT30;58451;51.550;7.208;2023-05-10T09:16:05;17.19;71.38
70830;SHT30;58451;51.550;7.208;2023-05-10T09:17:51;17.24;71.43
70830;SHT30;58451;51.550;7.208;2023-05-10T09:19:24;17.30;71.18
70830;SHT30;58451;51.550;7.208;2023-05-10T09:20:56;17.36;71.10
70830;SHT30;58451;51.550;7.208;2023-05-10T09:22:27;17.43;70.95
70830;SHT30;58451;51.550;7.208;2023-05-10T09:24:02;17.50;70.95
70830;SHT30;58451;51.550;7.208;2023-05-10T09:25:36;17.56;70.95
70830;SHT30;58451;51.550;7.208;2023-05-10T09:27:09;17.66;71.13
70830;SHT30;58451;51.550;7.208;2023-05-10T09:28:54;17.78;71.17
70830;SHT30;58451;51.550;7.208;2023-05-10T09:30:30;17.95;70.85
70830;SHT30;58451;51.550;7.208;2023-05-10T09:32:02;18.08;70.62
70830;SHT30;58451;51.550;7.208;2023-05-10T09:33:43;18.15;70.12
70830;SHT30;58451;51.550;7.208;2023-05-10T09:35:18;18.13;69.23
70830;SHT30;58451;51.550;7.208;2023-05-10T09:36:59;18.18;69.80
70830;SHT30;58451;51.550;7.208;2023-05-10T09:38:44;18.27;70.00
70830;SHT30;58451;51.550;7.208;2023-05-10T09:40:26;18.43;68.72
70830;SHT30;58451;51.550;7.208;2023-05-10T09:42:04;18.65;69.13
70830;SHT30;58451;51.550;7.208;2023-05-10T09:43:40;18.92;68.53
70830;SHT30;58451;51.550;7.208;2023-05-10T09:45:14;19.23;68.25
70830;SHT30;58451;51.550;7.208;2023-05-10T09:46:49;19.41;66.28
70830;SHT30;58451;51.550;7.208;2023-05-10T09:48:24;19.71;66.97
70830;SHT30;58451;51.550;7.208;2023-05-10T09:49:57;19.85;65.95
70830;SHT30;58451;51.550;7.208;2023-05-10T09:51:34;19.95;63.85
70830;SHT30;58451;51.550;7.208;2023-05-10T09:53:07;20.12;64.97
70830;SHT30;58451;51.550;7.208;2023-05-10T09:54:42;20.38;65.87
70830;SHT30;58451;51.550;7.208;2023-05-10T09:56:34;20.62;65.85
70830;SHT30;58451;51.550;7.208;2023-05-10T09:58:08;20.82;64.08
70830;SHT30;58451;51.550;7.208;2023-05-10T09:59:43;20.89;63.13
70830;SHT30;58451;51.550;7.208;2023-05-10T10:01:15;20.81;61.25
70830;SHT30;58451;51.550;7.208;2023-05-10T10:02:53;20.78;60.58
70830;SHT30;58451;51.550;7.208;2023-05-10T10:04:30;20.83;60.88
70830;SHT30;58451;51.550;7.208;2023-05-10T10:06:03;20.74;59.27
70830;SHT30;58451;51.550;7.208;2023-05-10T10:07:57;20.84;60.63
70830;SHT30;58451;51.550;7.208;2023-05-10T10:09:30;20.95;60.50
70830;SHT30;58451;51.550;7.208;2023-05-10T10:11:03;20.99;60.38